Time;durP1;ratioP1;P1;durP2;ratioP2;P2;SDS_P1;SDS_P2;PMS_P1;PMS_P2;Temp;Humidity;BMP_temperature;BMP_pressure;BME280_temperature;BME280_humidity;BME280_pressure;Samples;Min_cycle;Max_cycle;Signal;HPM_P1;HPM_P2
2022/01/31 00:01:53;;;;;;;12.47;5.00;;;;;;;-0.90;100.00;96189.22;5094573;28;24433;-74
2022/01/31 00:04:20;;;;;;;12.07;4.70;;;;;;;-0.79;100.00;96204.38;5100704;28;24430;-73
2022/01/31 00:06:49;;;;;;;11.05;5.07;;;;;;;-0.78;100.00;96195.88;5100524;28;24476;-74
2022/01/31 00:09:17;;;;;;;8.27;4.57;;;;;;;-0.49;100.00;96190.44;5101541;28;24438;-73
2022/01/31 00:11:54;;;;;;;12.65;5.07;;;;;;;-0.56;100.00;96184.56;5101651;28;24453;-74
2022/01/31 00:14:31;;;;;;;17.13;5.13;;;;;;;-0.55;100.00;96193.06;5096902;28;24997;-75
2022/01/31 00:17:00;;;;;;;12.43;5.07;;;;;;;-0.68;100.00;96189.81;5093903;28;24438;-74
2022/01/31 00:19:26;;;;;;;12.43;4.78;;;;;;;-0.87;100.00;96190.91;5093638;28;24438;-74
2022/01/31 00:21:53;;;;;;;11.00;5.88;;;;;;;-0.96;100.00;96184.22;5093722;28;24438;-74
2022/01/31 00:24:20;;;;;;;10.93;5.40;;;;;;;-0.90;100.00;96189.22;5093633;28;24434;-74
2022/01/31 00:26:46;;;;;;;10.03;4.90;;;;;;;-0.92;100.00;96165.53;5093188;28;24434;-74
2022/01/31 00:29:14;;;;;;;13.13;4.50;;;;;;;-0.79;100.00;96161.13;5101711;28;24437;-73
2022/01/31 00:31:43;;;;;;;10.23;4.95;;;;;;;-0.75;100.00;96161.06;5102371;28;24469;-73
2022/01/31 00:34:11;;;;;;;14.13;5.60;;;;;;;-0.79;100.00;96173.84;5095713;28;24583;-73
2022/01/31 00:36:38;;;;;;;10.93;5.55;;;;;;;-0.79;100.00;96156.88;5094321;28;24492;-73
2022/01/31 00:39:05;;;;;;;14.63;6.03;;;;;;;-0.63;100.00;96159.22;5102454;28;24464;-73
2022/01/31 00:41:32;;;;;;;14.03;5.67;;;;;;;-0.68;100.00;96166.09;5096958;28;24461;-74
2022/01/31 00:44:02;;;;;;;13.68;5.78;;;;;;;-0.97;100.00;96167.28;5093363;28;24426;-73
2022/01/31 00:46:35;;;;;;;10.02;4.68;;;;;;;-0.87;100.00;96168.03;5092863;28;24473;-73
2022/01/31 00:49:03;;;;;;;9.45;4.72;;;;;;;-0.45;100.00;96147.97;5095105;28;24438;-73
2022/01/31 00:51:31;;;;;;;12.05;5.60;;;;;;;-0.50;100.00;96113.25;5102008;28;24469;-74
2022/01/31 00:53:58;;;;;;;10.93;5.27;;;;;;;-0.64;100.00;96127.88;5095575;28;24541;-73
2022/01/31 00:56:24;;;;;;;10.57;4.97;;;;;;;-0.84;100.00;96123.06;5092688;28;24429;-73
2022/01/31 00:58:50;;;;;;;10.85;5.05;;;;;;;-0.84;100.00;96115.41;5092866;28;24430;-74
2022/01/31 01:01:17;;;;;;;11.63;4.47;;;;;;;-0.82;100.00;96102.66;5093197;28;24442;-74
2022/01/31 01:03:43;;;;;;;13.45;5.07;;;;;;;-0.76;100.00;96094.97;5093287;28;24437;-74
2022/01/31 01:06:10;;;;;;;17.23;5.20;;;;;;;-0.74;100.00;96090.72;5092808;28;24418;-76
2022/01/31 01:08:38;;;;;;;11.00;4.68;;;;;;;-0.81;100.00;96068.78;5092883;28;24831;-74
2022/01/31 01:13:47;;;;;;;14.05;5.15;;;;;;;-0.83;100.00;96055.22;5095455;28;24442;-74
2022/01/31 01:16:13;;;;;;;14.55;5.28;;;;;;;-1.12;100.00;96075.94;5105450;28;24437;-74
2022/01/31 01:18:40;;;;;;;11.40;5.60;;;;;;;-1.10;100.00;96062.38;5096270;28;24434;-74
2022/01/31 01:21:06;;;;;;;10.50;4.73;;;;;;;-1.03;100.00;96068.22;5093284;28;24434;-76
2022/01/31 01:23:33;;;;;;;10.23;4.83;;;;;;;-0.88;100.00;96054.47;5093043;28;24434;-74
2022/01/31 01:26:01;;;;;;;10.98;4.70;;;;;;;-0.78;100.00;96056.00;5092442;28;24442;-74
2022/01/31 01:28:27;;;;;;;13.43;5.13;;;;;;;-0.64;100.00;96041.38;5091983;28;24429;-74
2022/01/31 01:30:57;;;;;;;11.77;4.95;;;;;;;-0.82;100.00;96036.56;5092619;28;24434;-74
2022/01/31 01:33:25;;;;;;;10.55;5.00;;;;;;;-0.74;100.00;96027.97;5095104;28;25005;-73
2022/01/31 01:35:59;;;;;;;10.70;4.72;;;;;;;-1.06;100.00;96027.56;5095225;28;24438;-73
2022/01/31 01:38:29;;;;;;;16.60;5.50;;;;;;;-0.87;100.00;95977.31;5094951;28;24517;-74
2022/01/31 01:40:57;;;;;;;10.38;5.18;;;;;;;-0.76;100.00;95962.72;5092526;28;24448;-74
2022/01/31 01:43:26;;;;;;;15.70;5.43;;;;;;;-1.07;100.00;95980.16;5091988;28;25005;-74
2022/01/31 01:45:54;;;;;;;13.63;5.10;;;;;;;-1.11;100.00;95969.19;5092968;28;24438;-73
2022/01/31 01:48:21;;;;;;;10.20;5.00;;;;;;;-1.03;100.00;95953.81;5091886;28;24437;-73
2022/01/31 01:50:49;;;;;;;12.00;4.78;;;;;;;-0.85;100.00;95942.53;5096188;28;24446;-73
2022/01/31 01:53:15;;;;;;;10.40;5.07;;;;;;;-1.04;100.00;95931.78;5096549;28;24460;-73
2022/01/31 01:55:45;;;;;;;16.13;4.80;;;;;;;-0.94;100.00;95894.38;5095516;28;24427;-74
2022/01/31 01:58:15;;;;;;;14.40;4.90;;;;;;;-1.07;100.00;95884.41;5092155;28;24423;-75
2022/01/31 02:00:50;;;;;;;12.95;4.93;;;;;;;-1.24;100.00;95892.25;5092293;28;24426;-74
2022/01/31 02:03:17;;;;;;;13.60;5.38;;;;;;;-1.29;100.00;95876.25;5091725;28;24838;-74
2022/01/31 02:05:43;;;;;;;8.98;4.28;;;;;;;-1.10;100.00;95855.66;5099488;28;24437;-74
2022/01/31 02:08:12;;;;;;;11.75;4.82;;;;;;;-0.92;100.00;95845.19;5112220;28;24428;-75
2022/01/31 02:10:38;;;;;;;11.75;5.13;;;;;;;-0.84;100.00;95845.88;5112366;28;24418;-74
2022/01/31 02:13:06;;;;;;;11.27;4.80;;;;;;;-0.93;100.00;95846.03;5110838;28;24445;-74
2022/01/31 02:15:33;;;;;;;9.88;4.32;;;;;;;-0.82;100.00;95840.75;5111451;28;24487;-73
2022/01/31 02:18:01;;;;;;;10.98;4.65;;;;;;;-0.78;100.00;95848.34;5097516;28;24495;-74
2022/01/31 02:20:28;;;;;;;10.43;4.33;;;;;;;-0.69;100.00;95849.88;5091354;28;24442;-74
2022/01/31 02:22:56;;;;;;;10.60;4.22;;;;;;;-0.52;100.00;95834.28;5091422;28;24438;-73
2022/01/31 02:25:22;;;;;;;8.65;4.20;;;;;;;-0.41;100.00;95845.09;5091241;28;24484;-74
2022/01/31 02:27:49;;;;;;;13.63;4.73;;;;;;;-0.32;100.00;95837.31;5091221;28;24433;-74
2022/01/31 02:30:17;;;;;;;14.07;5.55;;;;;;;-0.44;100.00;95842.63;5090972;28;24496;-74
2022/01/31 02:32:44;;;;;;;14.57;5.82;;;;;;;-0.31;100.00;95813.53;5090671;28;24441;-74
2022/01/31 02:35:12;;;;;;;13.23;5.50;;;;;;;-0.38;100.00;95821.31;5091284;28;24499;-74
2022/01/31 02:37:39;;;;;;;14.75;5.43;;;;;;;-0.46;100.00;95813.81;5090894;28;24890;-74
2022/01/31 02:40:09;;;;;;;11.40;4.68;;;;;;;-0.51;100.00;95815.63;5095134;28;24433;-73
2022/01/31 02:42:37;;;;;;;12.73;5.28;;;;;;;-0.46;100.00;95808.72;5105693;28;24445;-73
2022/01/31 02:45:05;;;;;;;15.00;6.80;;;;;;;-0.38;100.00;95794.16;5098639;28;24430;-73
2022/01/31 02:47:38;;;;;;;13.88;5.35;;;;;;;-0.32;100.00;95772.84;5095560;28;24529;-74
2022/01/31 02:50:08;;;;;;;12.52;5.70;;;;;;;-0.33;100.00;95776.28;5091326;28;24434;-74
2022/01/31 02:52:36;;;;;;;20.90;4.45;;;;;;;-0.22;100.00;95759.06;5091586;28;24434;-73
2022/01/31 02:55:04;;;;;;;9.65;3.60;;;;;;;0.10;100.00;95743.09;5090963;28;24835;-76
2022/01/31 02:57:32;;;;;;;12.75;3.65;;;;;;;0.13;100.00;95727.75;5090805;28;25123;-74
2022/01/31 02:59:59;;;;;;;10.93;3.72;;;;;;;0.19;100.00;95708.94;5090850;28;24971;-73
2022/01/31 03:02:25;;;;;;;9.02;3.17;;;;;;;0.39;100.00;95694.00;5090537;28;24967;-74
2022/01/31 03:04:51;;;;;;;9.68;3.00;;;;;;;0.49;100.00;95692.09;5090617;28;24430;-74
2022/01/31 03:07:18;;;;;;;17.13;3.60;;;;;;;0.55;100.00;95691.09;5090528;28;24838;-74
2022/01/31 03:09:44;;;;;;;10.77;3.13;;;;;;;0.57;100.00;95692.72;5092542;28;24437;-74
2022/01/31 03:12:13;;;;;;;11.98;3.30;;;;;;;0.63;100.00;95673.88;5099483;28;24473;-73
2022/01/31 03:14:42;;;;;;;8.48;3.30;;;;;;;0.68;100.00;95660.16;5094204;28;24811;-74
2022/01/31 03:17:09;;;;;;;6.20;2.97;;;;;;;0.74;100.00;95654.06;5090140;28;24507;-74
2022/01/31 03:19:38;;;;;;;10.73;3.70;;;;;;;0.83;100.00;95646.16;5095035;28;24445;-74
2022/01/31 03:22:05;;;;;;;7.55;3.20;;;;;;;0.80;100.00;95630.94;5093594;28;24492;-73
2022/01/31 03:24:32;;;;;;;9.65;3.50;;;;;;;0.71;100.00;95632.03;5090340;28;24438;-74
2022/01/31 03:26:58;;;;;;;8.23;3.38;;;;;;;0.73;100.00;95635.38;5094764;28;24977;-74
2022/01/31 03:29:25;;;;;;;7.80;3.20;;;;;;;0.76;100.00;95621.72;5090526;28;24437;-74
2022/01/31 03:31:53;;;;;;;10.60;3.53;;;;;;;0.88;100.00;95606.09;5090854;28;24422;-74
2022/01/31 03:34:19;;;;;;;10.32;3.80;;;;;;;0.84;100.00;95568.81;5090142;28;25024;-74
2022/01/31 03:36:45;;;;;;;11.10;3.40;;;;;;;1.07;100.00;95547.75;5089871;28;24444;-74
2022/01/31 03:39:12;;;;;;;7.68;3.17;;;;;;;0.88;100.00;95544.06;5089868;28;24994;-73
2022/01/31 03:41:39;;;;;;;16.20;3.95;;;;;;;0.78;100.00;95551.16;5090079;28;24442;-73
2022/01/31 03:44:06;;;;;;;16.38;3.65;;;;;;;0.69;100.00;95577.72;5095269;28;24457;-73
2022/01/31 03:46:34;;;;;;;15.02;3.90;;;;;;;0.72;100.00;95607.38;5097737;28;24854;-73
2022/01/31 03:49:02;;;;;;;9.83;3.37;;;;;;;0.78;100.00;95601.28;5089964;28;24442;-73
2022/01/31 03:51:29;;;;;;;8.70;2.92;;;;;;;0.82;100.00;95588.41;5089798;28;24465;-73
2022/01/31 03:53:55;;;;;;;16.93;3.93;;;;;;;0.98;100.00;95590.53;5089926;28;24499;-73
2022/01/31 03:56:22;;;;;;;11.70;3.67;;;;;;;1.06;100.00;95566.47;5089994;28;24441;-73
2022/01/31 03:58:48;;;;;;;11.85;3.90;;;;;;;1.23;100.00;95572.81;5090237;28;24433;-74
2022/01/31 04:01:15;;;;;;;10.95;3.63;;;;;;;1.19;100.00;95584.84;5110111;28;24441;-72
2022/01/31 04:03:42;;;;;;;15.00;3.67;;;;;;;1.17;100.00;95568.72;5113760;28;24446;-74
2022/01/31 04:06:09;;;;;;;10.68;3.78;;;;;;;1.16;100.00;95575.53;5109774;28;24430;-74
2022/01/31 04:08:36;;;;;;;12.05;3.67;;;;;;;1.17;100.00;95581.47;5096665;28;24438;-74
2022/01/31 04:11:02;;;;;;;12.07;3.63;;;;;;;1.14;100.00;95573.91;5089899;28;24835;-73
2022/01/31 04:13:29;;;;;;;11.50;3.50;;;;;;;1.26;100.00;95577.81;5090045;28;25092;-73
2022/01/31 04:15:55;;;;;;;9.95;3.10;;;;;;;1.21;100.00;95581.34;5089441;28;25030;-73
2022/01/31 04:18:21;;;;;;;11.32;3.67;;;;;;;1.18;100.00;95571.22;5089819;28;24923;-74
2022/01/31 04:20:48;;;;;;;10.68;3.30;;;;;;;1.21;100.00;95575.41;5089683;28;24442;-74
2022/01/31 04:23:18;;;;;;;8.27;2.90;;;;;;;1.23;100.00;95560.06;5089557;28;24438;-74
2022/01/31 04:25:51;;;;;;;12.13;3.30;;;;;;;1.30;100.00;95547.09;5090044;28;24530;-74
2022/01/31 04:28:21;;;;;;;9.20;3.08;;;;;;;1.49;100.00;95562.66;5092503;28;24533;-73
2022/01/31 04:30:54;;;;;;;9.40;3.20;;;;;;;1.43;100.00;95560.28;5093472;28;24529;-74
2022/01/31 04:33:21;;;;;;;8.55;2.92;;;;;;;1.56;100.00;95545.44;5093140;28;24799;-74
2022/01/31 04:35:48;;;;;;;10.82;2.90;;;;;;;1.50;100.00;95538.81;5093268;28;24453;-74
2022/01/31 04:38:17;;;;;;;10.43;2.80;;;;;;;1.61;100.00;95530.81;5093013;28;25025;-74
2022/01/31 04:40:43;;;;;;;9.57;3.22;;;;;;;1.44;100.00;95526.22;5093507;28;24437;-74
2022/01/31 04:43:10;;;;;;;10.63;3.37;;;;;;;1.45;100.00;95525.38;5092805;28;24519;-74
2022/01/31 04:45:36;;;;;;;8.57;2.95;;;;;;;1.51;100.00;95514.94;5093630;28;24418;-74
2022/01/31 04:48:03;;;;;;;9.95;3.25;;;;;;;1.57;100.00;95506.28;5092660;28;24441;-74
2022/01/31 04:50:30;;;;;;;12.45;3.08;;;;;;;1.61;100.00;95515.50;5093349;28;24438;-74
2022/01/31 04:52:57;;;;;;;12.15;3.53;;;;;;;1.63;100.00;95512.03;5092899;28;24434;-74
2022/01/31 04:55:24;;;;;;;11.80;3.30;;;;;;;1.65;100.00;95504.31;5092843;28;24458;-73
2022/01/31 04:57:51;;;;;;;12.20;3.35;;;;;;;1.70;100.00;95493.06;5092830;28;24441;-73
2022/01/31 05:00:18;;;;;;;9.13;3.10;;;;;;;1.75;100.00;95487.81;5092918;28;24529;-74
2022/01/31 05:02:45;;;;;;;9.77;3.20;;;;;;;1.78;100.00;95476.66;5092980;28;24503;-74
2022/01/31 05:05:11;;;;;;;8.90;2.93;;;;;;;1.94;100.00;95470.16;5092964;28;24480;-73
2022/01/31 05:07:38;;;;;;;9.25;3.30;;;;;;;1.94;100.00;95475.28;5092456;28;24434;-73
2022/01/31 05:10:05;;;;;;;10.80;3.33;;;;;;;1.96;100.00;95442.00;5092796;28;24437;-74
2022/01/31 05:12:32;;;;;;;12.27;4.15;;;;;;;1.94;100.00;95444.63;5092720;28;24441;-74
2022/01/31 05:14:59;;;;;;;14.27;3.70;;;;;;;2.00;100.00;95441.84;5092771;28;24523;-74
2022/01/31 05:17:25;;;;;;;10.45;3.45;;;;;;;1.99;100.00;95417.19;5109562;28;24811;-74
2022/01/31 05:19:52;;;;;;;13.70;4.00;;;;;;;2.09;100.00;95408.31;5104214;28;24433;-74
2022/01/31 05:22:18;;;;;;;17.00;4.38;;;;;;;2.03;100.00;95393.19;5104054;28;24861;-74
2022/01/31 05:24:45;;;;;;;8.55;3.80;;;;;;;2.03;100.00;95385.53;5110972;28;25265;-75
2022/01/31 05:27:13;;;;;;;9.35;3.72;;;;;;;2.04;100.00;95379.56;5104639;28;24573;-75
2022/01/31 05:29:41;;;;;;;11.75;4.30;;;;;;;2.09;100.00;95375.13;5092260;28;25120;-75
2022/01/31 05:32:08;;;;;;;13.43;4.18;;;;;;;2.08;100.00;95363.25;5092283;28;25186;-74
2022/01/31 05:34:34;;;;;;;11.68;3.85;;;;;;;2.09;100.00;95370.00;5092243;28;24472;-74
2022/01/31 05:37:01;;;;;;;11.32;4.30;;;;;;;2.12;100.00;95363.97;5092135;28;24826;-74
2022/01/31 05:39:27;;;;;;;12.05;4.57;;;;;;;2.08;100.00;95359.84;5091316;28;24430;-74
2022/01/31 05:41:54;;;;;;;16.20;4.07;;;;;;;2.13;100.00;95350.28;5092016;28;24488;-74
2022/01/31 05:44:22;;;;;;;9.13;3.33;;;;;;;2.25;100.00;95351.56;5091993;28;24438;-74
2022/01/31 05:46:51;;;;;;;11.45;3.72;;;;;;;2.14;100.00;95339.19;5111442;28;24811;-74
2022/01/31 05:49:18;;;;;;;11.32;3.83;;;;;;;2.10;100.00;95323.13;5112052;28;24529;-74
2022/01/31 05:51:53;;;;;;;16.90;4.20;;;;;;;2.14;100.00;95309.34;5102465;28;24438;-74
2022/01/31 05:54:19;;;;;;;12.73;3.88;;;;;;;2.20;100.00;95298.09;5091654;28;24998;-74
2022/01/31 05:56:46;;;;;;;13.15;4.50;;;;;;;2.16;100.00;95302.47;5091083;28;24454;-74
2022/01/31 05:59:13;;;;;;;14.82;4.35;;;;;;;2.14;100.00;95295.75;5091985;28;24438;-74
2022/01/31 06:01:39;;;;;;;9.48;3.33;;;;;;;2.14;100.00;95283.81;5091410;28;25009;-74
2022/01/31 06:04:07;;;;;;;13.02;3.45;;;;;;;2.16;100.00;95276.94;5091782;28;24444;-74
2022/01/31 06:06:34;;;;;;;6.23;2.83;;;;;;;2.15;100.00;95267.59;5090971;28;24441;-75
2022/01/31 06:09:00;;;;;;;12.30;3.53;;;;;;;2.06;100.00;95251.78;5091644;28;24438;-74
2022/01/31 06:11:30;;;;;;;7.55;3.10;;;;;;;1.97;100.00;95270.84;5091192;28;25017;-75
2022/01/31 06:13:57;;;;;;;9.57;3.08;;;;;;;2.02;100.00;95260.47;5091346;28;24444;-74
2022/01/31 06:16:23;;;;;;;11.17;3.57;;;;;;;1.99;100.00;95269.06;5101396;28;24620;-74
2022/01/31 06:18:50;;;;;;;10.27;3.40;;;;;;;1.93;100.00;95280.34;5091383;28;24811;-73
2022/01/31 06:21:18;;;;;;;8.95;3.15;;;;;;;1.92;100.00;95267.63;5090718;28;24457;-74
2022/01/31 06:23:44;;;;;;;13.93;3.58;;;;;;;1.94;100.00;95264.13;5090826;28;24441;-74
2022/01/31 06:26:11;;;;;;;10.48;3.70;;;;;;;1.89;100.00;95257.50;5090197;28;24434;-74
2022/01/31 06:28:38;;;;;;;9.60;3.47;;;;;;;1.84;100.00;95267.06;5089157;28;24984;-75
2022/01/31 06:31:04;;;;;;;7.88;3.55;;;;;;;1.76;100.00;95267.34;5100708;28;24433;-74
2022/01/31 06:33:30;;;;;;;13.25;3.80;;;;;;;1.71;100.00;95256.50;5105315;28;24434;-73
2022/01/31 06:35:57;;;;;;;7.95;3.15;;;;;;;1.69;100.00;95250.59;5097700;28;24445;-74
2022/01/31 06:38:25;;;;;;;8.60;3.23;;;;;;;1.66;100.00;95263.47;5091308;28;24484;-73
2022/01/31 06:40:52;;;;;;;8.77;3.08;;;;;;;1.53;100.00;95269.91;5090748;28;25009;-75
2022/01/31 06:43:19;;;;;;;9.35;3.53;;;;;;;1.49;100.00;95268.34;5092648;28;24460;-73
2022/01/31 06:45:45;;;;;;;7.57;3.15;;;;;;;1.47;100.00;95265.84;5094076;28;24434;-73
2022/01/31 06:48:12;;;;;;;10.00;3.60;;;;;;;1.45;100.00;95262.53;5095259;28;24441;-74
2022/01/31 06:50:38;;;;;;;8.57;3.25;;;;;;;1.38;100.00;95281.50;5096711;28;24842;-74
2022/01/31 06:53:06;;;;;;;7.47;3.30;;;;;;;1.37;100.00;95283.22;5095952;28;24442;-73
2022/01/31 06:55:34;;;;;;;7.50;3.00;;;;;;;1.37;100.00;95295.09;5094705;28;24481;-74
2022/01/31 06:58:02;;;;;;;8.93;2.67;;;;;;;1.41;100.00;95287.31;5092221;28;24529;-74
2022/01/31 07:00:29;;;;;;;6.70;2.97;;;;;;;1.34;100.00;95293.50;5100436;27;24430;-73
2022/01/31 07:02:56;;;;;;;7.60;2.67;;;;;;;1.29;100.00;95292.81;5096052;28;24490;-73
2022/01/31 07:05:23;;;;;;;6.78;2.90;;;;;;;1.25;100.00;95291.25;5093260;28;24520;-74
2022/01/31 07:07:49;;;;;;;5.47;2.35;;;;;;;1.23;100.00;95297.31;5090444;28;24766;-74
2022/01/31 07:10:16;;;;;;;7.15;2.85;;;;;;;1.21;100.00;95282.06;5091871;28;24441;-74
2022/01/31 07:12:51;;;;;;;4.17;2.50;;;;;;;1.16;100.00;95287.31;5090228;28;24573;-74
2022/01/31 07:15:18;;;;;;;6.38;2.58;;;;;;;1.07;100.00;95279.97;5095642;28;24549;-73
2022/01/31 07:17:46;;;;;;;4.32;2.17;;;;;;;1.10;100.00;95279.88;5094922;28;24441;-73
2022/01/31 07:20:21;;;;;;;4.97;2.80;;;;;;;1.07;100.00;95287.59;5090011;28;24434;-74
2022/01/31 07:22:53;;;;;;;4.88;2.28;;;;;;;1.08;100.00;95273.16;5090220;28;24491;-74
2022/01/31 07:25:34;;;;;;;3.95;2.20;;;;;;;1.10;100.00;95279.03;5101849;28;24815;-73
2022/01/31 07:28:03;;;;;;;6.50;2.40;;;;;;;1.00;100.00;95293.78;5103039;28;24450;-74
2022/01/31 07:30:30;;;;;;;4.50;2.25;;;;;;;0.96;100.00;95279.47;5094998;28;24434;-75
2022/01/31 07:32:56;;;;;;;4.10;2.00;;;;;;;0.99;100.00;95288.75;5089606;28;24442;-74
2022/01/31 07:35:31;;;;;;;5.57;2.45;;;;;;;0.97;100.00;95286.28;5096291;28;24539;-75
2022/01/31 07:37:58;;;;;;;4.65;1.80;;;;;;;0.95;100.00;95293.94;5097361;28;24450;-74
2022/01/31 07:40:26;;;;;;;2.73;1.90;;;;;;;0.94;100.00;95299.13;5113206;28;24526;-74
2022/01/31 07:42:53;;;;;;;3.03;1.70;;;;;;;0.91;100.00;95306.84;5097967;28;24464;-74
2022/01/31 07:45:21;;;;;;;4.65;1.67;;;;;;;0.98;100.00;95315.16;5101574;28;24461;-73
2022/01/31 07:47:47;;;;;;;5.30;2.00;;;;;;;1.01;100.00;95312.50;5110734;28;24482;-75
2022/01/31 07:50:14;;;;;;;6.38;1.63;;;;;;;0.98;100.00;95312.59;5090784;28;24943;-75
2022/01/31 07:52:41;;;;;;;2.92;1.75;;;;;;;1.03;100.00;95316.66;5090998;28;24550;-75
2022/01/31 07:55:10;;;;;;;5.00;2.03;;;;;;;1.19;100.00;95301.69;5110157;28;24440;-75
2022/01/31 07:57:38;;;;;;;1.90;1.13;;;;;;;1.17;100.00;95298.34;5102493;28;24518;-76
2022/01/31 08:00:06;;;;;;;2.20;1.40;;;;;;;1.18;100.00;95307.66;5104013;28;24434;-74
2022/01/31 08:02:33;;;;;;;2.17;1.27;;;;;;;1.23;100.00;95304.97;5092249;28;24426;-75
2022/01/31 08:05:00;;;;;;;1.60;1.10;;;;;;;1.20;100.00;95306.72;5094404;28;24414;-74
2022/01/31 08:07:26;;;;;;;0.70;0.50;;;;;;;1.25;100.00;95308.28;5102811;28;24438;-75
2022/01/31 08:09:53;;;;;;;0.70;0.35;;;;;;;1.33;100.00;95294.38;5104630;28;24488;-74
2022/01/31 08:12:20;;;;;;;1.00;0.50;;;;;;;1.37;100.00;95300.22;5104116;28;25636;-74
2022/01/31 08:14:48;;;;;;;0.85;0.50;;;;;;;1.41;100.00;95312.84;5114377;28;24445;-74
2022/01/31 08:17:25;;;;;;;1.33;0.93;;;;;;;1.44;100.00;95309.31;5102971;28;24495;-74
2022/01/31 08:19:53;;;;;;;6.85;3.08;;;;;;;1.43;100.00;95308.50;5100029;28;24422;-74
2022/01/31 08:22:20;;;;;;;3.42;1.85;;;;;;;1.48;100.00;95308.31;5100035;28;24464;-74
2022/01/31 08:24:46;;;;;;;1.80;1.08;;;;;;;1.55;100.00;95306.41;5112783;28;24433;-74
2022/01/31 08:27:13;;;;;;;3.47;2.60;;;;;;;1.49;100.00;95314.28;5106035;28;24845;-74
2022/01/31 08:29:40;;;;;;;1.98;0.93;;;;;;;1.49;100.00;95314.28;5112849;28;24453;-74
2022/01/31 08:32:16;;;;;;;1.80;1.17;;;;;;;1.48;100.00;95297.28;5099008;28;24434;-74
2022/01/31 08:37:28;;;;;;;2.53;0.85;;;;;;;1.56;100.00;95310.63;5110061;28;24445;-73
2022/01/31 08:39:55;;;;;;;2.00;1.10;;;;;;;1.63;100.00;95305.25;5084926;28;24466;-74
2022/01/31 08:42:22;;;;;;;2.00;0.90;;;;;;;1.73;100.00;95293.00;5105471;28;24438;-74
2022/01/31 08:44:49;;;;;;;2.00;0.95;;;;;;;1.77;100.00;95297.09;5103034;28;24444;-74
2022/01/31 08:47:16;;;;;;;3.67;1.40;;;;;;;1.77;100.00;95286.88;5111732;28;24817;-75
2022/01/31 08:49:43;;;;;;;3.03;1.10;;;;;;;1.86;100.00;95286.56;5100313;28;24996;-74
2022/01/31 08:52:10;;;;;;;2.92;0.90;;;;;;;1.91;100.00;95276.19;5112211;28;24448;-75
2022/01/31 08:54:37;;;;;;;1.90;0.90;;;;;;;1.94;100.00;95291.38;5104557;28;24816;-74
2022/01/31 08:57:05;;;;;;;2.90;0.95;;;;;;;1.96;100.00;95291.31;5099913;28;24460;-74
2022/01/31 08:59:32;;;;;;;2.83;1.00;;;;;;;1.96;100.00;95293.88;5112521;28;24421;-74
2022/01/31 09:02:06;;;;;;;2.05;0.70;;;;;;;1.95;100.00;95300.72;5093117;28;24437;-73
2022/01/31 09:04:41;;;;;;;1.80;0.93;;;;;;;2.01;100.00;95284.34;5092777;28;24880;-74
2022/01/31 09:07:07;;;;;;;1.63;0.80;;;;;;;2.00;100.00;95282.66;5099589;28;24434;-73
2022/01/31 09:09:33;;;;;;;1.25;0.90;;;;;;;1.96;100.00;95271.72;5094636;28;24438;-74
2022/01/31 09:12:03;;;;;;;8.27;2.23;;;;;;;1.96;100.00;95261.50;5093154;28;24605;-74
2022/01/31 09:14:29;;;;;;;2.42;1.13;;;;;;;2.00;100.00;95268.16;5092552;28;24430;-75
2022/01/31 09:16:56;;;;;;;2.38;1.30;;;;;;;1.99;100.00;95273.34;5092522;28;24449;-74
2022/01/31 09:19:22;;;;;;;2.13;1.27;;;;;;;2.01;100.00;95279.22;5093208;28;24478;-75
2022/01/31 09:21:49;;;;;;;3.05;1.50;;;;;;;2.13;100.00;95277.03;5092951;28;24436;-75
2022/01/31 09:24:16;;;;;;;2.67;1.20;;;;;;;2.30;100.00;95278.09;5104777;28;24434;-75
2022/01/31 09:26:42;;;;;;;4.90;1.43;;;;;;;2.46;100.00;95273.25;5112443;28;24447;-75
2022/01/31 09:29:12;;;;;;;2.45;1.48;;;;;;;2.51;100.00;95274.72;5113298;28;24775;-75
2022/01/31 09:31:38;;;;;;;3.20;1.70;;;;;;;2.83;100.00;95278.56;5093823;28;24955;-75
2022/01/31 09:34:06;;;;;;;2.15;1.20;;;;;;;3.01;100.00;95277.00;5092818;28;24430;-76
2022/01/31 09:36:32;;;;;;;3.45;1.48;;;;;;;2.92;100.00;95273.06;5092217;28;25020;-75
2022/01/31 09:38:59;;;;;;;5.38;1.30;;;;;;;2.92;100.00;95267.97;5092335;28;24505;-75
2022/01/31 09:41:28;;;;;;;3.83;1.50;;;;;;;2.82;100.00;95278.66;5092366;28;24441;-75
2022/01/31 09:44:14;;;;;;;5.22;1.67;;;;;;;2.84;100.00;95287.06;5092667;28;24840;-75
2022/01/31 09:46:52;;;;;;;3.05;1.33;;;;;;;2.73;100.00;95281.56;5111629;28;24429;-74
2022/01/31 09:49:20;;;;;;;5.35;1.85;;;;;;;2.66;100.00;95276.69;5112861;28;24457;-75
2022/01/31 09:51:47;;;;;;;3.25;1.70;;;;;;;2.92;100.00;95279.91;5112762;28;24481;-75
2022/01/31 09:54:15;;;;;;;3.17;1.50;;;;;;;3.07;100.00;95288.69;5094450;28;24810;-75
2022/01/31 09:56:44;;;;;;;7.00;1.77;;;;;;;3.06;100.00;95275.06;5095370;28;25248;-75
2022/01/31 09:59:12;;;;;;;9.07;2.20;;;;;;;2.86;100.00;95282.75;5113034;28;24421;-74
2022/01/31 10:01:43;;;;;;;3.33;1.67;;;;;;;2.77;100.00;95291.59;5112143;28;24441;-74
2022/01/31 10:04:14;;;;;;;3.80;1.65;;;;;;;2.77;100.00;95281.38;5112779;28;24417;-74
2022/01/31 10:06:42;;;;;;;9.95;2.10;;;;;;;2.47;100.00;95283.41;5112571;28;24500;-74
2022/01/31 10:09:11;;;;;;;8.85;1.92;;;;;;;2.40;100.00;95287.91;5101320;28;25038;-74
2022/01/31 10:11:44;;;;;;;4.00;1.60;;;;;;;2.40;100.00;95274.31;5092060;28;24469;-76
2022/01/31 10:17:07;;;;;;;6.10;1.92;;;;;;;2.50;100.00;95290.97;5091619;28;24406;-76
2022/01/31 10:19:44;;;;;;;6.25;2.38;;;;;;;2.45;100.00;95284.34;5091802;28;24441;-73
2022/01/31 10:22:13;;;;;;;6.00;1.83;;;;;;;2.49;100.00;95288.47;5091926;28;24493;-74
2022/01/31 10:24:42;;;;;;;4.53;2.10;;;;;;;2.56;100.00;95279.66;5090936;28;24434;-73
2022/01/31 10:27:11;;;;;;;3.40;1.38;;;;;;;2.49;100.00;95278.25;5098567;28;24841;-74
2022/01/31 10:29:37;;;;;;;5.70;1.97;;;;;;;2.60;100.00;95294.00;5111637;28;24414;-74
2022/01/31 10:32:08;;;;;;;12.45;1.88;;;;;;;2.62;100.00;95297.31;5111437;28;24991;-74
2022/01/31 10:34:37;;;;;;;4.53;1.48;;;;;;;2.60;100.00;95282.06;5111882;28;24549;-74
2022/01/31 10:37:07;;;;;;;4.07;1.60;;;;;;;2.69;100.00;95268.06;5095761;28;24453;-74
2022/01/31 10:54:07;;;;;;;5.27;1.80;;;;;;;2.54;100.00;95277.16;5096638;28;24452;-73
2022/01/31 10:56:40;;;;;;;7.43;2.22;;;;;;;2.53;100.00;95272.97;5093168;28;24446;-74
2022/01/31 10:59:10;;;;;;;7.53;1.85;;;;;;;2.46;100.00;95260.47;5105838;28;24433;-75
2022/01/31 11:01:38;;;;;;;5.22;1.65;;;;;;;2.55;100.00;95273.72;5109868;28;24981;-74
2022/01/31 11:04:10;;;;;;;4.07;1.70;;;;;;;2.57;100.00;95263.44;5111276;28;24471;-74
2022/01/31 11:06:37;;;;;;;5.80;1.90;;;;;;;2.46;100.00;95271.53;5111266;28;24495;-74
2022/01/31 11:09:07;;;;;;;6.15;1.50;;;;;;;2.43;100.00;95274.19;5111291;28;24424;-74
2022/01/31 11:11:35;;;;;;;4.90;1.30;;;;;;;2.41;100.00;95268.31;5110727;28;25021;-74
2022/01/31 11:14:03;;;;;;;4.63;1.33;;;;;;;2.43;100.00;95284.44;5111412;28;24515;-74
2022/01/31 11:16:32;;;;;;;4.35;1.73;;;;;;;2.57;100.00;95278.78;5095164;28;24540;-74
2022/01/31 11:19:02;;;;;;;4.90;1.80;;;;;;;2.50;100.00;95285.84;5107560;28;24525;-77
2022/01/31 11:21:34;;;;;;;6.35;2.20;;;;;;;2.48;100.00;95287.63;5087251;28;24478;-76
2022/01/31 11:24:03;;;;;;;3.50;1.30;;;;;;;2.53;100.00;95280.63;5089161;28;24846;-76
2022/01/31 11:26:37;;;;;;;8.35;1.77;;;;;;;2.45;100.00;95272.44;5103867;28;24446;-76
2022/01/31 11:29:05;;;;;;;6.00;1.92;;;;;;;2.43;100.00;95277.59;5083474;28;24514;-76
2022/01/31 11:31:32;;;;;;;4.80;1.60;;;;;;;2.36;100.00;95283.81;5106834;28;25051;-76
2022/01/31 11:33:59;;;;;;;5.43;1.90;;;;;;;2.44;100.00;95278.41;5098344;28;24839;-76
2022/01/31 11:36:26;;;;;;;4.72;1.52;;;;;;;2.32;100.00;95269.50;5089018;28;24453;-76
2022/01/31 11:38:53;;;;;;;3.53;1.20;;;;;;;2.35;100.00;95269.38;5099811;28;24438;-75
2022/01/31 11:41:21;;;;;;;3.63;1.55;;;;;;;2.38;100.00;95291.44;5087451;28;24963;-77
2022/01/31 11:43:56;;;;;;;5.03;1.40;;;;;;;2.40;100.00;95282.81;5109827;28;24978;-77
2022/01/31 11:46:24;;;;;;;4.57;1.50;;;;;;;2.39;100.00;95281.16;5110884;28;24779;-77
2022/01/31 11:48:52;;;;;;;4.78;1.50;;;;;;;2.31;100.00;95282.34;5113436;28;24562;-76
2022/01/31 11:51:20;;;;;;;3.83;1.58;;;;;;;2.33;100.00;95283.94;5098170;28;25063;-77
2022/01/31 11:53:47;;;;;;;5.68;1.90;;;;;;;2.34;100.00;95280.50;5102578;28;24441;-75